Time;durP1;ratioP1;P1;durP2;ratioP2;P2;SDS_P1;SDS_P2;PMS_P1;PMS_P2;Temp;Humidity;BMP_temperature;BMP_pressure;BME280_temperature;BME280_humidity;BME280_pressure;Samples;Min_cycle;Max_cycle;Signal;HPM_P1;HPM_P2
2024/01/22 00:00:50;;;;;;;26.67;15.13;;;;;;;-6.33;100.00;61354.97;5012503;28;20223;-80
2024/01/22 00:03:17;;;;;;;42.92;19.90;;;;;;;-6.31;100.00;61355.03;5013338;28;20211;-83
2024/01/22 00:05:44;;;;;;;41.13;19.70;;;;;;;-6.42;100.00;61348.28;5030205;28;20222;-81
2024/01/22 00:08:11;;;;;;;42.70;18.98;;;;;;;-6.40;100.00;61347.84;5043027;28;20210;-81
2024/01/22 00:10:40;;;;;;;48.50;19.90;;;;;;;-6.42;100.00;61348.28;5033892;28;20218;-82
2024/01/22 00:13:06;;;;;;;38.75;18.52;;;;;;;-6.25;100.00;61365.59;5029352;28;20202;-82
2024/01/22 00:15:33;;;;;;;42.50;19.75;;;;;;;-6.25;100.00;61366.09;5027531;28;20263;-82
2024/01/22 00:18:01;;;;;;;42.65;19.02;;;;;;;-6.17;100.00;61374.25;5015930;28;20199;-82
2024/01/22 00:20:28;;;;;;;38.72;18.17;;;;;;;-6.19;100.00;61371.69;5026791;28;20297;-82
2024/01/22 00:22:55;;;;;;;45.67;20.33;;;;;;;-6.04;100.00;61389.47;5016105;28;20211;-84
2024/01/22 00:25:22;;;;;;;41.30;21.08;;;;;;;-5.97;100.00;61394.59;5025807;28;20221;-81
2024/01/22 00:27:50;;;;;;;37.35;19.23;;;;;;;-5.87;100.00;61406.25;5014435;28;20214;-82
2024/01/22 00:30:18;;;;;;;43.17;20.30;;;;;;;-5.89;100.00;61396.78;5012203;28;20246;-80
2024/01/22 00:32:45;;;;;;;35.17;19.13;;;;;;;-5.92;100.00;61394.25;5025472;28;20207;-82
2024/01/22 00:35:12;;;;;;;48.15;21.30;;;;;;;-5.80;100.00;61410.91;5028840;28;20245;-82
2024/01/22 00:37:40;;;;;;;46.45;20.90;;;;;;;-5.81;100.00;61409.88;5034797;28;20221;-82
2024/01/22 00:40:08;;;;;;;40.88;19.50;;;;;;;-6.02;100.00;61386.53;5015124;28;20269;-83
2024/01/22 00:42:36;;;;;;;52.88;22.50;;;;;;;-5.99;100.00;61387.63;5018058;28;20199;-81
2024/01/22 00:45:04;;;;;;;48.42;22.92;;;;;;;-6.12;100.00;61376.34;5022069;28;20254;-82
2024/01/22 00:47:31;;;;;;;46.38;20.55;;;;;;;-6.38;100.00;61354.81;5029897;28;20558;-82
2024/01/22 00:49:58;;;;;;;42.05;19.02;;;;;;;-6.57;100.00;61330.53;5029436;28;20269;-82
2024/01/22 00:52:25;;;;;;;39.42;18.95;;;;;;;-6.63;100.00;61321.94;5030243;28;20233;-82
2024/01/22 00:54:52;;;;;;;42.60;20.30;;;;;;;-6.93;100.00;61301.81;5018587;28;20294;-83
2024/01/22 00:57:19;;;;;;;44.38;17.65;;;;;;;-6.93;100.00;61296.88;5025923;28;20225;-82
2024/01/22 00:59:48;;;;;;;39.92;18.95;;;;;;;-7.12;100.00;61275.59;5021549;28;20229;-81
2024/01/22 01:02:17;;;;;;;34.92;17.80;;;;;;;-7.06;100.00;61283.13;5018969;28;20195;-82
2024/01/22 01:04:44;;;;;;;35.75;15.95;;;;;;;-7.17;100.00;61270.00;5022855;28;20223;-83
2024/01/22 01:07:12;;;;;;;40.72;19.60;;;;;;;-7.34;100.00;61257.63;5038760;28;20199;-81
2024/01/22 01:09:39;;;;;;;33.15;16.73;;;;;;;-7.15;100.00;61269.56;5024783;28;20227;-81
2024/01/22 01:12:06;;;;;;;39.97;17.73;;;;;;;-6.96;100.00;61296.31;5023003;28;20262;-82
2024/01/22 01:14:33;;;;;;;44.10;19.15;;;;;;;-6.96;100.00;61293.81;5024782;28;20223;-80
2024/01/22 01:17:00;;;;;;;41.67;18.90;;;;;;;-7.14;100.00;61268.59;5025022;28;20206;-81
2024/01/22 01:19:29;;;;;;;51.55;20.95;;;;;;;-6.84;100.00;61303.56;5030511;28;20261;-82
2024/01/22 01:21:56;;;;;;;42.80;20.25;;;;;;;-6.85;100.00;61309.47;5024711;28;20214;-83
2024/01/22 01:24:23;;;;;;;41.17;18.73;;;;;;;-7.07;100.00;61287.56;5026972;28;20243;-82
2024/01/22 01:26:49;;;;;;;49.45;19.42;;;;;;;-7.08;100.00;61273.69;5018470;28;20433;-82
2024/01/22 01:29:16;;;;;;;45.25;19.48;;;;;;;-7.09;100.00;61283.06;5018788;28;20343;-82
2024/01/22 01:31:43;;;;;;;47.85;21.30;;;;;;;-7.17;100.00;61275.44;5020355;28;20204;-82
2024/01/22 01:34:11;;;;;;;44.85;20.20;;;;;;;-7.17;100.00;61270.50;5024387;28;20203;-83
2024/01/22 01:36:39;;;;;;;33.03;17.77;;;;;;;-6.89;100.00;61300.44;5030332;28;20202;-82
2024/01/22 01:39:06;;;;;;;46.55;19.60;;;;;;;-6.68;100.00;61322.31;5030970;28;20254;-81
2024/01/22 01:41:33;;;;;;;41.42;17.25;;;;;;;-6.57;100.00;61323.63;5026465;28;20250;-81
2024/01/22 01:44:00;;;;;;;30.13;14.75;;;;;;;-6.45;100.00;61343.25;5025416;28;20290;-83
2024/01/22 01:46:29;;;;;;;36.10;18.58;;;;;;;-6.37;100.00;61350.91;5022879;28;20229;-83
2024/01/22 01:48:55;;;;;;;38.63;18.48;;;;;;;-6.31;100.00;61357.50;5022380;28;20523;-80
2024/01/22 01:51:22;;;;;;;40.35;19.70;;;;;;;-6.21;100.00;61375.13;5019566;28;20230;-81
2024/01/22 01:53:51;;;;;;;44.13;20.35;;;;;;;-6.62;100.00;61328.44;5030779;28;20266;-81
2024/01/22 01:56:18;;;;;;;40.50;18.60;;;;;;;-6.61;100.00;61329.44;5020185;28;20251;-83
2024/01/22 01:58:45;;;;;;;67.40;19.77;;;;;;;-6.64;100.00;61323.91;5018105;28;20512;-79
2024/01/22 02:01:12;;;;;;;46.83;20.27;;;;;;;-6.98;100.00;61291.28;5025860;28;20223;-82
2024/01/22 02:03:40;;;;;;;36.35;19.00;;;;;;;-7.00;100.00;61286.75;5027511;28;20206;-81
2024/01/22 02:06:07;;;;;;;35.40;16.77;;;;;;;-7.22;100.00;61272.84;5029842;28;20263;-80
2024/01/22 02:08:34;;;;;;;39.10;19.08;;;;;;;-7.02;100.00;61292.16;5010855;28;20200;-82
2024/01/22 02:11:02;;;;;;;29.45;16.73;;;;;;;-7.05;100.00;61279.72;5019283;28;20519;-82
2024/01/22 02:13:29;;;;;;;37.17;16.58;;;;;;;-7.26;100.00;61256.41;5035852;28;20225;-83
2024/01/22 02:15:59;;;;;;;35.17;16.00;;;;;;;-7.42;100.00;61247.53;5031826;28;20245;-80
2024/01/22 02:18:26;;;;;;;30.17;14.00;;;;;;;-7.37;100.00;61255.09;5025681;28;20251;-81
2024/01/22 02:20:53;;;;;;;28.02;13.75;;;;;;;-7.42;100.00;61247.53;5026391;28;20223;-83
2024/01/22 02:23:21;;;;;;;33.33;16.60;;;;;;;-7.59;100.00;61232.22;5029511;28;20205;-81
2024/01/22 02:25:48;;;;;;;28.08;13.35;;;;;;;-7.65;100.00;61221.69;5024972;28;20659;-81
2024/01/22 02:28:15;;;;;;;27.35;13.25;;;;;;;-8.10;100.00;61175.44;5012730;28;20195;-81
2024/01/22 02:30:42;;;;;;;35.97;17.95;;;;;;;-7.87;100.00;61199.31;5028727;28;20269;-82
2024/01/22 02:33:09;;;;;;;44.55;19.05;;;;;;;-7.93;100.00;61192.69;5030623;28;20191;-81
2024/01/22 02:35:36;;;;;;;47.97;19.17;;;;;;;-7.98;100.00;61193.06;5032076;28;20289;-80
2024/01/22 02:38:03;;;;;;;41.58;19.13;;;;;;;-8.01;100.00;61187.56;5027380;28;20253;-81
2024/01/22 02:40:31;;;;;;;37.25;17.20;;;;;;;-7.85;100.00;61203.81;5030649;28;20464;-81
2024/01/22 02:42:58;;;;;;;43.05;16.98;;;;;;;-7.69;100.00;61217.09;5028537;28;20195;-83
2024/01/22 02:45:25;;;;;;;27.30;14.63;;;;;;;-7.53;100.00;61233.88;5028705;28;20222;-83
2024/01/22 02:47:51;;;;;;;48.30;20.17;;;;;;;-7.52;100.00;61236.84;5027083;28;20191;-81
2024/01/22 02:50:19;;;;;;;54.78;23.00;;;;;;;-7.69;100.00;61217.09;5030216;28;20223;-82
2024/01/22 02:52:46;;;;;;;53.72;21.38;;;;;;;-7.74;100.00;61210.06;5013687;28;20207;-82
2024/01/22 02:55:13;;;;;;;63.25;20.85;;;;;;;-8.07;100.00;61181.44;5015958;28;20234;-83
2024/01/22 02:57:42;;;;;;;36.60;18.52;;;;;;;-7.83;100.00;61210.78;5030390;28;20198;-83
2024/01/22 03:00:09;;;;;;;41.22;17.40;;;;;;;-7.62;100.00;61227.19;5028110;28;20223;-82
2024/01/22 03:02:37;;;;;;;35.92;17.20;;;;;;;-7.53;100.00;61235.84;5010353;28;20275;-79
2024/01/22 03:05:04;;;;;;;34.42;17.80;;;;;;;-7.54;100.00;61237.31;5026905;28;20466;-81
2024/01/22 03:07:31;;;;;;;35.88;18.30;;;;;;;-7.95;100.00;61195.59;5026282;28;20270;-82
2024/01/22 03:09:58;;;;;;;42.08;18.73;;;;;;;-8.00;100.00;61188.06;5025330;28;20222;-82
2024/01/22 03:12:25;;;;;;;41.42;17.38;;;;;;;-8.20;100.00;61170.72;5020765;28;20245;-83
2024/01/22 03:14:54;;;;;;;40.38;18.10;;;;;;;-7.73;100.00;61220.94;5013363;28;20257;-83
2024/01/22 03:17:21;;;;;;;40.65;16.88;;;;;;;-8.10;100.00;61178.41;5032152;28;20258;-82
2024/01/22 03:19:49;;;;;;;38.70;16.52;;;;;;;-7.97;100.00;61191.13;5031209;28;20231;-81
2024/01/22 03:22:16;;;;;;;39.92;18.02;;;;;;;-7.99;100.00;61187.13;5028486;28;20203;-82
2024/01/22 03:24:46;;;;;;;39.88;17.20;;;;;;;-8.19;100.00;61168.75;5014422;28;20262;-81
2024/01/22 03:27:13;;;;;;;48.85;20.13;;;;;;;-7.77;100.00;61211.44;5029325;28;20274;-82
2024/01/22 03:29:41;;;;;;;36.38;18.27;;;;;;;-7.59;100.00;61232.22;5019165;28;20226;-83
2024/01/22 03:32:10;;;;;;;32.33;16.20;;;;;;;-7.66;100.00;61227.56;5031323;28;20233;-81
2024/01/22 03:34:37;;;;;;;41.22;17.45;;;;;;;-7.72;100.00;61219.00;5026898;28;20235;-82
2024/01/22 03:37:04;;;;;;;42.03;17.73;;;;;;;-7.79;100.00;61212.38;5022426;28;20279;-80
2024/01/22 03:39:31;;;;;;;39.40;19.08;;;;;;;-7.96;100.00;61190.16;5018827;28;20222;-82
2024/01/22 03:41:58;;;;;;;38.35;16.70;;;;;;;-7.96;100.00;61192.13;5028482;28;20206;-82
2024/01/22 03:44:25;;;;;;;38.97;18.15;;;;;;;-7.93;100.00;61192.69;5024327;28;20562;-82
2024/01/22 03:46:52;;;;;;;51.33;20.63;;;;;;;-7.85;100.00;61203.31;5022827;28;20209;-82
2024/01/22 03:49:21;;;;;;;41.85;19.23;;;;;;;-7.75;100.00;61213.47;5017169;28;20232;-80
2024/01/22 03:51:51;;;;;;;47.22;18.52;;;;;;;-7.91;100.00;61202.16;5026413;28;20210;-82
2024/01/22 03:54:17;;;;;;;39.05;17.00;;;;;;;-8.08;100.00;61187.34;5027533;28;20230;-83
2024/01/22 03:56:44;;;;;;;50.10;20.73;;;;;;;-8.09;100.00;61174.47;5028946;28;20230;-83
2024/01/22 03:59:11;;;;;;;65.07;21.52;;;;;;;-8.30;100.00;61163.03;5032225;28;20209;-84
2024/01/22 04:01:38;;;;;;;40.75;15.80;;;;;;;-8.24;100.00;61166.66;5024785;28;20222;-81
2024/01/22 04:04:05;;;;;;;46.58;18.95;;;;;;;-8.39;100.00;61149.47;5022385;28;20254;-82
2024/01/22 04:06:34;;;;;;;45.80;20.55;;;;;;;-8.30;100.00;61160.06;5023863;28;20225;-83
2024/01/22 04:09:04;;;;;;;41.78;18.10;;;;;;;-8.17;100.00;61173.25;5033238;28;20424;-80
2024/01/22 04:11:34;;;;;;;58.00;21.50;;;;;;;-8.02;100.00;61188.50;5033905;28;20285;-82
2024/01/22 04:14:01;;;;;;;62.65;20.90;;;;;;;-7.96;100.00;61192.63;5030533;28;20234;-82
2024/01/22 04:16:28;;;;;;;44.00;21.10;;;;;;;-7.72;100.00;61216.53;5031141;28;20222;-80
2024/01/22 04:18:55;;;;;;;46.67;20.98;;;;;;;-7.56;100.00;61230.81;5018752;28;20214;-80
2024/01/22 04:21:23;;;;;;;46.30;20.58;;;;;;;-7.54;100.00;61237.31;5021321;28;20203;-83
2024/01/22 04:23:52;;;;;;;47.22;20.70;;;;;;;-7.56;100.00;61233.28;5014110;28;20207;-82
2024/01/22 04:26:19;;;;;;;46.10;21.00;;;;;;;-7.50;100.00;61241.88;5023643;28;20524;-83
2024/01/22 04:28:46;;;;;;;59.67;20.75;;;;;;;-7.25;100.00;61261.84;5028300;28;20254;-81
2024/01/22 04:31:14;;;;;;;47.90;18.05;;;;;;;-7.15;100.00;61272.03;5032608;28;20419;-83
2024/01/22 04:33:43;;;;;;;61.60;21.15;;;;;;;-7.02;100.00;61290.19;5031259;28;20195;-83
2024/01/22 04:36:10;;;;;;;50.95;19.70;;;;;;;-7.09;100.00;61283.06;5013360;28;20262;-82
2024/01/22 04:38:37;;;;;;;57.92;19.73;;;;;;;-7.15;100.00;61279.44;5023780;28;20214;-80
2024/01/22 04:41:05;;;;;;;42.25;19.45;;;;;;;-7.38;100.00;61249.13;5031388;28;20242;-82
2024/01/22 04:43:32;;;;;;;66.50;24.27;;;;;;;-7.39;100.00;61245.13;5031798;28;20269;-81
2024/01/22 04:45:59;;;;;;;57.58;24.25;;;;;;;-7.72;100.00;61217.03;5019011;28;20230;-83
2024/01/22 04:48:26;;;;;;;51.00;21.38;;;;;;;-7.73;100.00;61216.00;5027262;28;20258;-82
2024/01/22 04:50:53;;;;;;;40.60;16.08;;;;;;;-7.64;100.00;61227.13;5032592;28;20206;-82
2024/01/22 04:53:21;;;;;;;62.95;22.05;;;;;;;-7.62;100.00;61229.16;5023544;28;20203;-83
2024/01/22 04:55:47;;;;;;;57.05;22.65;;;;;;;-7.66;100.00;61217.69;5021787;28;20302;-82
2024/01/22 04:58:16;;;;;;;48.67;21.27;;;;;;;-7.69;100.00;61219.56;5029681;28;20202;-81
2024/01/22 05:00:43;;;;;;;59.47;22.17;;;;;;;-7.84;100.00;61202.38;5028048;28;20229;-83
2024/01/22 05:03:11;;;;;;;47.10;19.55;;;;;;;-7.76;100.00;61214.91;5022426;28;20389;-83
2024/01/22 05:05:38;;;;;;;48.45;18.35;;;;;;;-7.55;100.00;61229.38;5023406;28;20210;-82
2024/01/22 05:08:08;;;;;;;48.85;17.55;;;;;;;-7.46;100.00;61243.47;5027658;28;20195;-81
2024/01/22 05:10:36;;;;;;;54.55;21.80;;;;;;;-7.37;100.00;61252.13;5043382;28;20226;-83
2024/01/22 05:13:03;;;;;;;51.15;19.27;;;;;;;-7.22;100.00;61265.41;5020413;28;20259;-83
2024/01/22 05:15:31;;;;;;;56.00;20.48;;;;;;;-7.34;100.00;61255.69;5017936;28;20237;-82
2024/01/22 05:17:58;;;;;;;45.53;19.08;;;;;;;-7.42;100.00;61250.00;5026758;28;20207;-82
2024/01/22 05:20:25;;;;;;;48.90;18.42;;;;;;;-7.16;100.00;61273.47;5031367;28;20218;-80
2024/01/22 05:22:52;;;;;;;41.67;18.65;;;;;;;-7.15;100.00;61272.03;5031396;28;20241;-82
2024/01/22 05:25:21;;;;;;;43.40;20.33;;;;;;;-7.58;100.00;61233.22;5028397;28;20246;-82
2024/01/22 05:27:49;;;;;;;41.85;19.92;;;;;;;-7.70;100.00;61218.56;5028237;28;20195;-81
2024/01/22 05:30:16;;;;;;;50.92;20.33;;;;;;;-7.87;100.00;61191.91;5029441;28;20227;-82
2024/01/22 05:32:44;;;;;;;31.52;13.93;;;;;;;-7.91;100.00;61195.25;5022679;28;20198;-83
2024/01/22 05:35:13;;;;;;;44.67;17.17;;;;;;;-7.80;100.00;61208.41;5023339;28;20286;-82
2024/01/22 05:37:39;;;;;;;38.67;17.40;;;;;;;-7.48;100.00;61240.94;5022368;28;20215;-83
2024/01/22 05:40:13;;;;;;;41.80;17.77;;;;;;;-7.53;100.00;61235.84;5023672;28;20550;-84
2024/01/22 05:42:40;;;;;;;44.28;17.88;;;;;;;-7.90;100.00;61195.75;5021641;28;20203;-82
2024/01/22 05:45:08;;;;;;;52.80;21.13;;;;;;;-7.77;100.00;61216.38;5023701;28;20728;-82
2024/01/22 05:47:36;;;;;;;61.10;24.00;;;;;;;-7.87;100.00;61203.75;5023353;28;20219;-81
2024/01/22 05:50:06;;;;;;;61.75;21.85;;;;;;;-7.84;100.00;61204.84;5022589;28;20298;-80
2024/01/22 05:52:33;;;;;;;61.88;21.55;;;;;;;-7.61;100.00;61233.16;5022738;28;20339;-83
2024/01/22 05:55:01;;;;;;;56.22;21.85;;;;;;;-7.42;100.00;61242.09;5022336;28;20298;-82
2024/01/22 05:57:27;;;;;;;37.75;17.77;;;;;;;-7.43;100.00;61241.59;5026436;28;20238;-82
2024/01/22 05:59:54;;;;;;;50.63;21.48;;;;;;;-7.48;100.00;61241.44;5023951;28;20219;-83
2024/01/22 06:02:21;;;;;;;55.33;20.42;;;;;;;-7.59;100.00;61229.75;5021095;28;20203;-81
2024/01/22 06:04:48;;;;;;;65.35;22.35;;;;;;;-7.59;100.00;61227.28;5026794;28;20432;-80
2024/01/22 06:07:16;;;;;;;58.17;22.40;;;;;;;-7.69;100.00;61219.56;5020897;28;20241;-80
2024/01/22 06:09:44;;;;;;;41.92;19.55;;;;;;;-7.73;100.00;61216.00;5025150;28;20219;-81
2024/01/22 06:12:10;;;;;;;54.17;20.45;;;;;;;-7.76;100.00;61217.91;5022724;28;20213;-79
2024/01/22 06:14:36;;;;;;;51.70;22.35;;;;;;;-7.66;100.00;61225.09;5030864;28;20219;-80
2024/01/22 06:17:04;;;;;;;58.67;23.48;;;;;;;-7.63;100.00;61233.09;5016802;28;20258;-80
2024/01/22 06:19:31;;;;;;;63.83;23.10;;;;;;;-7.84;100.00;61204.84;5029092;28;20238;-80
2024/01/22 06:21:58;;;;;;;52.08;20.98;;;;;;;-7.61;100.00;61225.25;5025950;28;20230;-80
2024/01/22 06:24:26;;;;;;;60.25;21.30;;;;;;;-7.49;100.00;61237.44;5023083;28;20219;-81
2024/01/22 06:26:53;;;;;;;58.60;23.63;;;;;;;-7.41;100.00;61243.09;5015608;28;20210;-82
2024/01/22 06:29:20;;;;;;;49.33;20.95;;;;;;;-7.56;100.00;61230.81;5015716;28;20273;-79
2024/01/22 06:31:48;;;;;;;54.90;21.98;;;;;;;-7.52;100.00;61237.38;5015223;28;20203;-79
2024/01/22 06:34:15;;;;;;;53.22;19.23;;;;;;;-7.75;100.00;61214.00;5015331;28;20515;-80
2024/01/22 06:36:42;;;;;;;54.67;18.60;;;;;;;-7.77;100.00;61204.03;5021201;28;20262;-80
2024/01/22 06:39:09;;;;;;;45.97;18.83;;;;;;;-7.55;100.00;61234.31;5007505;28;20218;-79
2024/01/22 06:41:37;;;;;;;46.35;18.10;;;;;;;-7.43;100.00;61246.53;5025951;28;20297;-80
2024/01/22 06:44:07;;;;;;;47.20;18.98;;;;;;;-7.33;100.00;61253.72;5018503;28;20267;-80
2024/01/22 06:46:34;;;;;;;49.63;20.27;;;;;;;-7.14;100.00;61270.56;5023727;28;20226;-81
2024/01/22 06:49:01;;;;;;;71.80;22.80;;;;;;;-7.04;100.00;61283.22;5022448;28;20264;-81
2024/01/22 06:51:29;;;;;;;57.30;22.10;;;;;;;-6.98;100.00;61294.25;5019736;28;20203;-82
2024/01/22 06:53:58;;;;;;;45.67;19.60;;;;;;;-7.13;100.00;61266.66;5013217;28;20211;-82
2024/01/22 06:56:26;;;;;;;54.42;20.60;;;;;;;-6.95;100.00;61299.78;5020592;28;20226;-82
2024/01/22 06:58:55;;;;;;;54.42;22.20;;;;;;;-6.96;100.00;61296.31;5016547;28;20206;-80
2024/01/22 07:01:22;;;;;;;56.30;21.02;;;;;;;-6.96;100.00;61295.78;5016650;28;20208;-82
2024/01/22 07:03:49;;;;;;;59.72;23.17;;;;;;;-6.90;100.00;61299.91;5020105;28;20210;-83
2024/01/22 07:06:16;;;;;;;49.78;20.40;;;;;;;-6.83;100.00;61301.59;5021543;28;20240;-81
2024/01/22 07:08:43;;;;;;;47.58;18.65;;;;;;;-7.26;100.00;61255.88;5023660;28;20195;-79
2024/01/22 07:11:10;;;;;;;53.15;20.13;;;;;;;-7.19;100.00;61273.41;5024430;28;20237;-80
2024/01/22 07:13:38;;;;;;;47.60;20.88;;;;;;;-6.83;100.00;61302.09;5015410;28;20227;-80
2024/01/22 07:16:09;;;;;;;60.50;24.05;;;;;;;-6.72;100.00;61313.31;5018917;28;20226;-79
2024/01/22 07:18:36;;;;;;;64.20;25.75;;;;;;;-6.74;100.00;61311.25;5016680;28;20241;-80
2024/01/22 07:21:04;;;;;;;55.10;22.20;;;;;;;-6.70;100.00;61320.28;5020639;28;20249;-80
2024/01/22 07:23:31;;;;;;;51.33;21.38;;;;;;;-6.49;100.00;61341.16;5023346;28;20199;-80
2024/01/22 07:25:58;;;;;;;63.53;22.23;;;;;;;-6.13;100.00;61375.34;5021395;28;20281;-80
2024/01/22 07:28:25;;;;;;;63.65;23.65;;;;;;;-5.99;100.00;61392.56;5012004;28;20204;-79
2024/01/22 07:30:52;;;;;;;56.67;22.48;;;;;;;-5.96;100.00;61393.16;5015939;28;20222;-81
2024/01/22 07:33:20;;;;;;;65.68;24.33;;;;;;;-6.33;100.00;61362.91;5027443;28;20306;-80
2024/01/22 07:35:47;;;;;;;65.80;23.10;;;;;;;-6.64;100.00;61330.84;5023194;28;20241;-79
2024/01/22 07:38:15;;;;;;;52.03;23.05;;;;;;;-6.59;100.00;61329.00;5015907;28;20242;-80
2024/01/22 07:40:42;;;;;;;55.47;24.40;;;;;;;-6.73;100.00;61319.19;5030546;28;20592;-81
2024/01/22 07:43:09;;;;;;;60.90;22.88;;;;;;;-6.65;100.00;61330.31;5023178;28;20202;-80
2024/01/22 07:45:36;;;;;;;53.08;22.38;;;;;;;-6.26;100.00;61364.56;5032369;28;20546;-83
2024/01/22 07:48:04;;;;;;;60.35;23.85;;;;;;;-5.93;100.00;61396.22;5032363;28;20203;-80
2024/01/22 07:50:32;;;;;;;69.85;27.55;;;;;;;-5.79;100.00;61406.94;5019265;28;20232;-80
2024/01/22 07:52:59;;;;;;;59.47;24.40;;;;;;;-5.59;100.00;61427.84;5029991;28;20205;-81
2024/01/22 07:55:26;;;;;;;63.78;26.63;;;;;;;-5.36;100.00;61453.75;5027902;28;20227;-81
2024/01/22 07:57:53;;;;;;;58.58;25.25;;;;;;;-5.29;100.00;61460.38;5023719;28;20297;-79
2024/01/22 08:00:20;;;;;;;83.82;37.63;;;;;;;-5.54;100.00;61437.38;5031231;28;20233;-81
2024/01/22 08:02:47;;;;;;;66.82;22.75;;;;;;;-5.46;100.00;61441.09;5032253;28;20210;-81
2024/01/22 08:05:13;;;;;;;64.57;26.67;;;;;;;-5.41;100.00;61450.63;5028928;28;20241;-81
2024/01/22 08:07:43;;;;;;;65.80;25.88;;;;;;;-5.42;100.00;61447.13;5024504;28;20198;-79
2024/01/22 08:10:10;;;;;;;61.10;26.73;;;;;;;-5.55;100.00;61431.91;5019311;28;20438;-80
2024/01/22 08:12:37;;;;;;;62.50;25.50;;;;;;;-5.44;100.00;61445.09;5020759;28;20214;-78
2024/01/22 08:15:04;;;;;;;64.82;27.05;;;;;;;-5.08;100.00;61484.78;5017462;28;20265;-79
2024/01/22 08:17:32;;;;;;;46.42;22.40;;;;;;;-5.55;100.00;61434.41;5021307;28;20227;-80
2024/01/22 08:19:59;;;;;;;47.05;20.88;;;;;;;-5.70;100.00;61416.13;5020535;28;20226;-80
2024/01/22 08:22:26;;;;;;;55.05;24.73;;;;;;;-5.77;100.00;61411.47;5012245;28;20235;-81
2024/01/22 08:24:55;;;;;;;61.55;24.38;;;;;;;-5.81;100.00;61412.34;5029733;28;20249;-80
2024/01/22 08:27:21;;;;;;;64.70;26.02;;;;;;;-5.80;100.00;61406.44;5013859;28;20199;-79
2024/01/22 08:29:48;;;;;;;53.78;22.17;;;;;;;-5.69;100.00;61422.09;5019605;28;20246;-82
2024/01/22 08:32:16;;;;;;;52.42;22.65;;;;;;;-5.40;100.00;61447.19;5033406;28;20207;-81
2024/01/22 08:34:43;;;;;;;62.03;26.02;;;;;;;-5.30;100.00;61456.88;5020668;28;20231;-81
2024/01/22 08:37:09;;;;;;;62.35;24.58;;;;;;;-5.34;100.00;61450.31;5030820;28;20230;-82
2024/01/22 08:39:36;;;;;;;55.75;23.80;;;;;;;-5.60;100.00;61431.25;5025916;28;20227;-83
2024/01/22 08:42:05;;;;;;;49.38;22.65;;;;;;;-5.48;100.00;61443.50;5013058;28;30411;-82
2024/01/22 08:44:32;;;;;;;53.20;24.02;;;;;;;-5.54;100.00;61442.34;5021228;28;20223;-82
2024/01/22 08:46:59;;;;;;;46.40;17.60;;;;;;;-5.34;100.00;61455.28;5020584;28;20227;-82
2024/01/22 08:49:27;;;;;;;53.88;21.45;;;;;;;-5.42;100.00;61447.66;5027993;28;20226;-84
2024/01/22 08:51:54;;;;;;;61.63;25.83;;;;;;;-5.56;100.00;61435.34;5022662;28;20199;-83
2024/01/22 08:54:20;;;;;;;52.28;23.70;;;;;;;-5.36;100.00;61453.25;5029609;28;20213;-81
2024/01/22 08:56:47;;;;;;;61.95;25.55;;;;;;;-5.00;100.00;61485.50;5025258;28;20297;-80
2024/01/22 08:59:16;;;;;;;59.88;27.67;;;;;;;-5.06;100.00;61481.34;5029044;28;20503;-81
2024/01/22 09:01:46;;;;;;;61.90;26.60;;;;;;;-4.68;100.00;61518.13;5024261;28;20262;-83
2024/01/22 09:04:13;;;;;;;63.97;26.27;;;;;;;-4.68;100.00;61518.13;5028177;28;20198;-84
2024/01/22 09:06:40;;;;;;;53.05;23.27;;;;;;;-4.89;100.00;61501.16;5022137;28;20204;-83
2024/01/22 09:09:09;;;;;;;56.45;23.63;;;;;;;-5.19;100.00;61473.03;5027353;28;20250;-84
2024/01/22 09:11:37;;;;;;;49.75;22.98;;;;;;;-5.49;100.00;61432.56;5026760;28;20202;-83
2024/01/22 09:14:04;;;;;;;54.53;22.15;;;;;;;-5.54;100.00;61429.94;5024443;28;20258;-83
2024/01/22 09:16:33;;;;;;;53.55;22.27;;;;;;;-5.57;100.00;61432.34;5024425;28;20500;-81
2024/01/22 09:19:00;;;;;;;50.92;23.27;;;;;;;-5.30;100.00;61456.88;5019931;28;20210;-80
2024/01/22 09:21:27;;;;;;;53.70;23.52;;;;;;;-5.03;100.00;61489.38;5024339;28;20203;-83
2024/01/22 09:23:54;;;;;;;56.58;24.88;;;;;;;-5.74;100.00;61409.56;5016632;28;20202;-81
2024/01/22 09:26:21;;;;;;;47.30;22.15;;;;;;;-5.09;100.00;61475.81;5025103;28;20227;-81
2024/01/22 09:28:48;;;;;;;58.28;26.20;;;;;;;-5.00;100.00;61489.94;5015650;28;20227;-82
2024/01/22 09:31:15;;;;;;;55.20;24.95;;;;;;;-4.61;100.00;61529.72;5023862;28;20233;-82
2024/01/22 09:33:44;;;;;;;54.92;24.58;;;;;;;-4.36;100.00;61557.69;5030364;28;20244;-84
2024/01/22 09:36:11;;;;;;;49.75;24.25;;;;;;;-4.48;100.00;61542.47;5032159;28;20218;-83
2024/01/22 09:38:39;;;;;;;60.20;24.05;;;;;;;-5.20;100.00;61472.03;5021832;28;20231;-81
2024/01/22 09:41:06;;;;;;;51.40;23.90;;;;;;;-5.17;100.00;61470.13;5028474;28;20258;-82
2024/01/22 09:43:33;;;;;;;60.78;27.65;;;;;;;-5.18;100.00;61471.59;5026752;28;20262;-82
2024/01/22 09:46:00;;;;;;;55.92;24.60;;;;;;;-4.93;100.00;61502.03;5026838;28;20218;-81
2024/01/22 09:48:29;;;;;;;60.78;26.05;;;;;;;-4.34;100.00;61554.25;5014889;28;20224;-84
2024/01/22 09:50:57;;;;;;;66.70;28.27;;;;;;;-4.54;100.00;61536.34;5021556;28;20462;-84
2024/01/22 09:53:24;;;;;;;56.67;25.60;;;;;;;-4.68;100.00;61524.53;5020118;28;20199;-81
2024/01/22 09:55:52;;;;;;;51.38;26.35;;;;;;;-4.92;100.00;61498.09;5014519;28;20230;-83
2024/01/22 09:58:21;;;;;;;63.25;26.52;;;;;;;-5.34;100.00;61452.81;5034054;28;20234;-83
2024/01/22 10:00:48;;;;;;;52.58;23.42;;;;;;;-5.23;100.00;61471.97;5032449;28;20222;-84
2024/01/22 10:03:15;;;;;;;66.32;30.73;;;;;;;-5.12;100.00;61478.22;5031162;28;20202;-85
2024/01/22 10:05:42;;;;;;;59.95;25.10;;;;;;;-4.92;100.00;61501.09;5029372;28;20281;-83
2024/01/22 10:08:11;;;;;;;48.20;22.83;;;;;;;-4.78;100.00;61514.88;5016920;28;20203;-82
2024/01/22 10:10:38;;;;;;;57.42;25.77;;;;;;;-4.24;100.00;61566.94;5017019;28;20219;-81
2024/01/22 10:13:07;;;;;;;63.33;30.35;;;;;;;-4.16;100.00;61578.09;5022725;28;20240;-83
2024/01/22 10:15:34;;;;;;;66.32;28.85;;;;;;;-4.37;100.00;61551.19;5031472;28;20226;-82
2024/01/22 10:18:12;;;;;;;61.50;24.15;;;;;;;-4.40;100.00;61543.69;5018586;28;20231;-84
2024/01/22 10:20:39;;;;;;;57.08;25.73;;;;;;;-4.20;100.00;61566.56;5028339;28;20414;-87
2024/01/22 10:23:06;;;;;;;59.50;26.15;;;;;;;-4.05;100.00;61591.81;5020855;28;20570;-86
2024/01/22 10:25:35;;;;;;;60.70;25.90;;;;;;;-3.87;100.00;61610.19;5026454;28;20214;-82
2024/01/22 10:28:08;;;;;;;55.55;27.35;;;;;;;-3.74;100.00;61620.97;5020630;28;20505;-82
2024/01/22 10:30:37;;;;;;;53.85;25.30;;;;;;;-3.73;100.00;61628.94;5020643;28;20294;-85
2024/01/22 10:33:09;;;;;;;74.38;32.95;;;;;;;-3.33;100.00;61656.84;5026943;28;20295;-83
2024/01/22 10:35:36;;;;;;;57.72;27.88;;;;;;;-3.29;100.00;61661.44;5010405;28;20219;-82
2024/01/22 10:38:07;;;;;;;60.90;26.77;;;;;;;-3.14;100.00;61673.78;5017218;28;20234;-78
2024/01/22 10:40:36;;;;;;;53.30;25.48;;;;;;;-2.87;100.00;61711.31;5025489;28;20234;-80
2024/01/22 10:43:24;;;;;;;51.92;25.83;;;;;;;-2.41;100.00;61753.84;5023270;28;20268;-82
2024/01/22 10:45:51;;;;;;;54.83;25.17;;;;;;;-2.79;100.00;61717.50;5011144;28;20222;-82
2024/01/22 10:48:19;;;;;;;43.25;21.83;;;;;;;-2.63;100.00;61723.91;5014454;28;20241;-80
2024/01/22 10:50:46;;;;;;;43.70;20.73;;;;;;;-2.39;100.00;61760.38;5018199;28;20219;-83
2024/01/22 10:53:13;;;;;;;40.60;20.63;;;;;;;-2.30;100.00;61764.59;5017248;28;20222;-82
2024/01/22 10:55:44;;;;;;;42.08;20.80;;;;;;;-2.14;99.35;61780.94;5017450;28;20222;-82
2024/01/22 10:58:15;;;;;;;38.40;20.98;;;;;;;-1.94;97.45;61796.41;5021720;28;20442;-84
2024/01/22 11:00:43;;;;;;;43.78;21.30;;;;;;;-1.86;97.00;61804.06;5017256;28;20220;-83
2024/01/22 11:03:10;;;;;;;40.88;20.88;;;;;;;-1.81;98.23;61822.16;5019247;28;20219;-85
2024/01/22 11:05:37;;;;;;;44.22;21.88;;;;;;;-1.82;96.42;61813.66;5018145;28;20223;-82
2024/01/22 11:08:05;;;;;;;49.97;21.48;;;;;;;-2.10;96.99;61782.53;5020879;28;20256;-82
2024/01/22 11:10:32;;;;;;;42.05;21.73;;;;;;;-1.65;96.93;61833.56;5019242;28;20230;-84